Details From EIDW - Dublin
To EGAA - Belfast Aldergrove
Flight Number -
Tags generated
Created
Modified
Stats Distance 74 nm / 137 km
Max Altitude 1,600 ft / 488 m
Waypoints 3
Social Downloads 0
Likes 0
Share VATSIM

Download

Looking for another format? Having issues loading an existing format? Contact us
Advertisement - Login to hide

Notes

Basic altitude profile: - Ascent Rate: 2500ft/min - Ascent Speed: 250kts - Cruise Altitude: 35000ft - Cruise Speed: 420kts - Descent Rate: 1500ft/min - Descent Speed: 250kts Options: - Use NATs: yes - Use PACOTS: yes - Use low airways: yes - Use high airways: no

Route

EIDW DUB EGAA

ID Type Via Altitude (ft/m) Position (lat/lon) Dist (leg/tot) Name
O EIDW APT - 0 / 0 53.42826 / -6.25955 - / 0 nm Dublin
DUB VOR - 1,600 / 488 53.49937 / -6.30711 4 / 4 nm DUBLIN VOR-DME
O EGAA APT - 0 / 0 54.65388 / -6.22001 69 / 74 nm Belfast Aldergrove

Altitude Profile

Advertisement - Login to hide

EIDW

Details ICAO EIDW (DUB)
Name Dublin Intn
Region Ireland
Timezone Europe/Dublin (UTC+0.0)
Stats Elevation 242 ft / 74 m (AMSL)
Location 53.424900° -6.263050°
Runways 2
Magnetic Variation 2.813° W

METAR

EIDW 261630Z 30009KT 270V330 9999 BKN038 11/05 Q1033 NOSIG

Decode

TAF

TAF EIDW 261100Z 2612/2712 27011KT 9999 FEW020

Decode

Departure Runways

ID Width Length Bearing (true/mag) Surface Threshold Overrun Markings Lighting
10 148 ft / 45 m 8,625 ft / 2,629 m 95.25° / 98.06° CONCRETE 0 ft / 0 m 0 ft / 0 m PREC-APP CENTERLINE EDGE THRESHOLD ALSF-II TDZ REIL-OMNI
16 200 ft / 61 m 6,791 ft / 2,070 m 156.63° / 159.45° ASPHALT 0 ft / 0 m 0 ft / 0 m PREC-APP EDGE THRESHOLD ALSF-I
28 148 ft / 45 m 8,625 ft / 2,629 m 275.28° / 278.09° CONCRETE 0 ft / 0 m 0 ft / 0 m PREC-APP CENTERLINE EDGE THRESHOLD ALSF-II TDZ
34 200 ft / 61 m 6,791 ft / 2,070 m 336.64° / 339.46° ASPHALT 0 ft / 0 m 0 ft / 0 m PREC-APP EDGE THRESHOLD SSALF

EGAA

Details ICAO EGAA (BFS)
Name Belfast International
Region United Kingdom
Timezone Europe/London (UTC+0.0)
Stats Elevation 268 ft / 82 m (AMSL)
Location 54.653900° -6.219940°
Runways 2
Magnetic Variation 3.023° W

METAR

EGAA 261620Z 27009KT 9999 BKN035 09/05 Q1033

Decode

TAF

TAF EGAA 261103Z 2612/2712 25009KT 9999 BKN038= TAF EGPD 261057Z 2612/2712 24009KT 9999 SCT040 PROB30 TEMPO 2612/2618 25015G25KT

Decode

Destination Runways

ID Width Length Bearing (true/mag) Surface Threshold Overrun Markings Lighting
07 147 ft / 45 m 9,124 ft / 2,781 m 65.01° / 68.04° ASPHALT 0 ft / 0 m 0 ft / 0 m APP CENTERLINE EDGE THRESHOLD CALVERT
17 148 ft / 45 m 5,909 ft / 1,801 m 161.99° / 165.02° ASPHALT 525 ft / 160 m 0 ft / 0 m PREC-APP EDGE THRESHOLD CALVERT
25 147 ft / 45 m 9,124 ft / 2,781 m 245.05° / 248.07° ASPHALT 0 ft / 0 m 0 ft / 0 m PREC-APP CENTERLINE EDGE THRESHOLD CALVERT TDZ
35 148 ft / 45 m 5,909 ft / 1,801 m 342.00° / 345.02° ASPHALT 502 ft / 153 m 0 ft / 0 m APP EDGE THRESHOLD MALS

Approach Navaids

Runway Type Ident Frequency Range Bearing (true/mag) Slope Elevation
17 DME IFT 110.90 MHz 18 nm / 33 km - - 253 ft / 77 m (AMSL)
17 LOC-ILS IFT 110.90 MHz 18 nm / 33 km 162.00° / 165.02 ° - 258 ft / 79 m (AMSL)
17 GS IFT 110.90 MHz 10 nm / 19 km 162.97° / 166.00 ° 3.00° 253 ft / 77 m (AMSL)
25 GS IAG 109.90 MHz 10 nm / 19 km 245.06° / 248.08 ° 3.00° 305 ft / 93 m (AMSL)
25 LOC-ILS IAG 109.90 MHz 18 nm / 33 km 245.01° / 248.04 ° - 206 ft / 63 m (AMSL)
25 DME IAG 109.90 MHz 18 nm / 33 km - - 305 ft / 93 m (AMSL)
25 OM OM - - 245.03° / 248.05 ° - 268 ft / 82 m (AMSL)

Popular Alternatives